Lutts, TN (38471)

12:51 CDT le 19 septembre 2014 (GMT -0500)
Glendale Estates | Change Station
CLOSE
Current Station
Stations météorologiques personnelles
Location: Florence, AL
Altitude: 558 ft
Stations météo à proximité

Alt. 558 ft 34.83 °N, 87.74 °W | Updated 2 seconds ago

Ciel dégagé
Ciel dégagé
85.2 ° F
Paraît 89 ° F
N
1.0
Vent Variable Vent de Nord
Gusts 3.0 mph

Aujourd'hui
Haut(e) -- | Bas -- ° F
--% Risque de précip.
Hier
Haut(e) -- | Bas -- ° F
Precip. -- pouce
6:37 AM 6:52 PM
Lune descendante, 18% visible
Pression 30.04 pouce
Visibilité 10.0 Miles terrestres
Nuages Ciel dégagé
indice de chaleur 89 ° F
Point de rosée 68 ° F
Humidité 57%
Précipitations 0.00 pouce
Profondeur de la couche neigeuse Non disponible.
UV 8 sur 12
Pollen 7.70 sur 12
Qualité de l'air Non disponible.
Flu Activity Non disponible.
METAR KMSL 191653Z AUTO 00000KT 10SM CLR 28/18 A3005 RMK AO2 SLP170 T02780178

More Conditions Fewer Conditions

Pression 30.04 pouce
Visibilité 10.0 Miles terrestres
Nuages Ciel dégagé
indice de chaleur 89 ° F
Point de rosée 68 ° F
Humidité 57%
Précipitations 0.00 pouce
Profondeur de la couche neigeuse Non disponible.
UV 8 sur 12
Pollen 7.70 sur 12
Qualité de l'air Non disponible.
Flu Activity Non disponible.
METAR KMSL 191653Z AUTO 00000KT 10SM CLR 28/18 A3005 RMK AO2 SLP170 T02780178

More Conditions Fewer Conditions

10-Day Weather Forecast

Almanac

Astronomie

Sep. 19, 2014 Lever Coucher
Temps réel 06:37 CDT 18:52 CDT
Crépuscule civil 06:12 CDT 19:18 CDT
Crépuscule nautique 05:42 CDT 19:47 CDT
Crépuscule astronomique 05:12 CDT 20:17 CDT
Lune 02:30 CDT 16:14 CDT
Durée de lumière visible 13h 05m
Longueur du jour
12h 15m
Tomorrow will be 2m 11s shorter.
Lune descendante, 18% of the Moon is Illuminated
Aujourd'hui
Lune descendante
Sep 24
Nouveau
Oct 1
Premier quartier
Oct 8
Pleine lune
Oct 15
Dernier quartier

Extrêmes aujourd'hui

State Highs State Lows

Community

WunderPhotos

Upload Photos

1,754,668 Photos téléchargées !

Nearby

Épaisseur de neige

Station Depth Altitude
Pas de nouvelles chutes de neige

Activité sismique

Ville Distance Mag. Time & Date
No recent earthquake activity has been reported nearby.
Minimum magnitude displayed is 2.5.

Températures des eaux côtières

Lieu Température
Aucun rapport de station

Stations météo à proximité